createdAt,value
2019-03-09T00:01:50.315Z,2.33
2019-03-09T00:04:17.856Z,1.90
2019-03-09T00:06:45.375Z,2.00
2019-03-09T00:09:12.839Z,1.97
2019-03-09T00:11:40.285Z,2.20
2019-03-09T00:14:07.731Z,2.13
2019-03-09T00:16:35.151Z,2.30
2019-03-09T00:19:02.641Z,2.10
2019-03-09T00:21:30.123Z,2.20
2019-03-09T00:24:35.488Z,2.13
2019-03-09T00:27:12.300Z,2.13
2019-03-09T00:30:11.203Z,2.20
2019-03-09T00:32:38.644Z,2.27
2019-03-09T00:35:06.074Z,2.00
2019-03-09T00:37:33.492Z,2.93
2019-03-09T00:40:00.913Z,2.30
2019-03-09T00:42:28.364Z,2.67
2019-03-09T00:44:55.819Z,2.43
2019-03-09T00:47:23.383Z,2.10
2019-03-09T00:49:50.849Z,1.90
2019-03-09T00:52:18.341Z,2.10
2019-03-09T00:54:45.811Z,3.47
2019-03-09T00:57:13.270Z,2.67
2019-03-09T00:59:40.644Z,2.10
2019-03-09T01:02:09.207Z,2.17
2019-03-09T01:04:36.620Z,2.20
2019-03-09T01:07:04.076Z,2.20
2019-03-09T01:09:31.786Z,2.10
2019-03-09T01:11:59.202Z,2.30
2019-03-09T01:14:26.620Z,3.10
2019-03-09T01:16:54.046Z,2.80
2019-03-09T01:19:21.576Z,2.57
2019-03-09T01:21:49.040Z,2.47
2019-03-09T01:24:16.715Z,2.07
2019-03-09T01:26:44.014Z,2.07
2019-03-09T01:29:11.423Z,2.50
2019-03-09T01:31:38.946Z,2.00
2019-03-09T01:34:06.406Z,2.57
2019-03-09T01:36:33.828Z,2.40
2019-03-09T01:39:01.289Z,2.03
2019-03-09T01:41:28.600Z,2.20
2019-03-09T01:43:56.045Z,3.30
2019-03-09T01:46:23.560Z,2.00
2019-03-09T01:48:51.010Z,2.10
2019-03-09T01:51:18.408Z,2.57
2019-03-09T01:53:45.903Z,2.10
2019-03-09T01:56:13.309Z,2.20
2019-03-09T01:58:40.681Z,2.30
2019-03-09T02:01:09.124Z,2.07
2019-03-09T02:03:36.741Z,2.17
2019-03-09T02:06:04.248Z,1.90
2019-03-09T02:08:31.588Z,1.83
2019-03-09T02:10:58.952Z,2.80
2019-03-09T02:13:26.231Z,2.13
2019-03-09T02:15:53.581Z,2.67
2019-03-09T02:18:21.881Z,2.00
2019-03-09T02:20:49.166Z,1.93
2019-03-09T02:23:16.555Z,2.00
2019-03-09T02:25:43.899Z,1.90
2019-03-09T02:28:11.199Z,2.07
2019-03-09T02:30:38.590Z,2.87
2019-03-09T02:33:06.549Z,2.10
2019-03-09T02:35:34.020Z,2.23
2019-03-09T02:38:08.698Z,2.30
2019-03-09T02:40:36.592Z,2.30
2019-03-09T02:43:04.057Z,2.30
2019-03-09T02:45:31.934Z,2.10
2019-03-09T02:47:59.389Z,2.10
2019-03-09T02:50:26.925Z,2.00
2019-03-09T02:52:54.374Z,2.20
2019-03-09T02:55:21.848Z,2.00
2019-03-09T02:57:49.201Z,2.00
2019-03-09T03:00:16.672Z,2.10
2019-03-09T03:02:52.835Z,2.23
2019-03-09T03:05:20.387Z,2.40
2019-03-09T03:07:47.745Z,2.30
2019-03-09T03:10:15.183Z,2.00
2019-03-09T03:12:42.572Z,2.13
2019-03-09T03:15:10.208Z,2.20
2019-03-09T03:17:37.551Z,2.10
2019-03-09T03:20:05.206Z,2.53
2019-03-09T03:22:32.670Z,2.00
2019-03-09T03:25:00.433Z,2.20
2019-03-09T03:27:27.906Z,2.10
2019-03-09T03:29:55.203Z,2.53
2019-03-09T03:32:23.562Z,1.80
2019-03-09T03:34:50.981Z,2.00
2019-03-09T03:37:18.422Z,2.10
2019-03-09T03:39:45.887Z,2.03
2019-03-09T03:42:13.275Z,2.27
2019-03-09T03:44:46.410Z,2.37
2019-03-09T03:47:15.220Z,2.03
2019-03-09T03:49:42.789Z,2.00
2019-03-09T03:52:10.267Z,2.13
2019-03-09T03:54:37.809Z,2.03
2019-03-09T03:57:05.200Z,2.93
2019-03-09T03:59:32.526Z,2.20
2019-03-09T04:02:06.120Z,2.20
2019-03-09T04:04:33.432Z,2.20
2019-03-09T04:07:01.506Z,2.80
2019-03-09T04:09:28.874Z,2.40
2019-03-09T04:11:56.260Z,2.20
2019-03-09T04:14:23.691Z,2.30
2019-03-09T04:16:51.068Z,2.83
2019-03-09T04:19:18.409Z,2.40
2019-03-09T04:21:45.889Z,2.27
2019-03-09T04:24:13.323Z,2.40
2019-03-09T04:26:40.771Z,2.40
2019-03-09T04:29:08.217Z,2.93
2019-03-09T04:31:35.688Z,2.30
2019-03-09T04:34:03.341Z,3.20
2019-03-09T04:36:30.630Z,2.57
2019-03-09T04:38:58.110Z,2.60
2019-03-09T04:41:25.608Z,2.93
2019-03-09T04:43:52.934Z,2.13
2019-03-09T04:46:20.355Z,2.33
2019-03-09T04:48:47.716Z,2.40
2019-03-09T04:51:15.147Z,2.33
2019-03-09T04:53:42.517Z,2.87
2019-03-09T04:56:09.975Z,3.23
2019-03-09T04:58:37.437Z,2.53
2019-03-09T05:01:04.880Z,2.37
2019-03-09T05:03:32.265Z,2.37
2019-03-09T05:05:59.603Z,2.80
2019-03-09T05:09:13.572Z,2.40
2019-03-09T05:11:41.072Z,2.40
2019-03-09T05:14:14.965Z,2.33
2019-03-09T05:16:42.332Z,2.93
2019-03-09T05:19:09.683Z,3.17
2019-03-09T05:21:36.983Z,2.60
2019-03-09T05:24:04.324Z,4.90
2019-03-09T05:26:31.781Z,3.90
2019-03-09T05:28:59.256Z,2.60
2019-03-09T05:31:26.587Z,3.13
2019-03-09T05:33:53.939Z,2.50
2019-03-09T05:36:21.310Z,3.13
2019-03-09T05:38:48.611Z,4.77
2019-03-09T05:41:16.035Z,3.43
2019-03-09T05:44:06.014Z,3.20
2019-03-09T05:46:33.404Z,4.20
2019-03-09T05:49:00.806Z,3.23
2019-03-09T05:51:28.218Z,3.07
2019-03-09T05:53:55.645Z,3.00
2019-03-09T05:56:22.987Z,3.20
2019-03-09T05:58:50.333Z,3.00
2019-03-09T06:01:17.807Z,2.90
2019-03-09T06:03:45.250Z,2.70
2019-03-09T06:06:14.685Z,2.60
2019-03-09T06:08:42.546Z,2.77
2019-03-09T06:11:09.961Z,2.50
2019-03-09T06:13:37.329Z,2.50
2019-03-09T06:16:04.854Z,2.53
2019-03-09T06:18:32.345Z,2.70
2019-03-09T06:20:59.748Z,2.60
2019-03-09T06:23:27.115Z,3.17
2019-03-09T06:25:54.506Z,2.50
2019-03-09T06:28:21.936Z,2.60
2019-03-09T06:30:49.424Z,2.60
2019-03-09T06:33:22.057Z,2.40
2019-03-09T06:36:02.148Z,3.60
2019-03-09T06:38:39.519Z,2.40
2019-03-09T06:41:10.350Z,2.40
2019-03-09T06:43:37.836Z,2.47
2019-03-09T06:46:05.280Z,2.40
2019-03-09T06:48:32.634Z,2.60
2019-03-09T06:51:00.136Z,2.40
2019-03-09T06:53:27.616Z,2.50
2019-03-09T06:55:55.046Z,2.40
2019-03-09T06:58:22.484Z,3.00
2019-03-09T07:00:49.842Z,2.50
2019-03-09T07:03:17.284Z,2.50
2019-03-09T07:05:44.766Z,2.40
2019-03-09T07:08:12.166Z,2.50
2019-03-09T07:10:39.620Z,2.30
2019-03-09T07:13:07.247Z,2.60
2019-03-09T07:15:42.621Z,2.37
2019-03-09T07:18:33.515Z,3.50
2019-03-09T07:21:01.046Z,2.47
2019-03-09T07:23:28.479Z,2.60
2019-03-09T07:25:55.839Z,2.50
2019-03-09T07:28:23.317Z,2.37
2019-03-09T07:30:50.764Z,2.57
2019-03-09T07:33:18.146Z,3.47
2019-03-09T07:35:45.656Z,3.53
2019-03-09T07:38:13.035Z,2.53
2019-03-09T07:40:40.572Z,3.27
2019-03-09T07:43:07.942Z,2.60
2019-03-09T07:45:37.175Z,2.83
2019-03-09T07:48:05.791Z,3.20
2019-03-09T07:50:34.460Z,3.23
2019-03-09T07:53:01.830Z,3.27
2019-03-09T07:55:38.830Z,2.40
2019-03-09T07:58:35.733Z,2.60
2019-03-09T08:01:03.656Z,2.80
2019-03-09T08:03:35.947Z,2.50
2019-03-09T08:06:10.865Z,2.93
2019-03-09T08:08:38.242Z,2.50
2019-03-09T08:11:05.700Z,2.80
2019-03-09T08:13:33.043Z,3.30
2019-03-09T08:16:00.404Z,2.50
2019-03-09T08:18:29.747Z,2.50
2019-03-09T08:20:57.142Z,2.60
2019-03-09T08:23:44.552Z,2.30
2019-03-09T08:26:11.963Z,3.03
2019-03-09T08:28:39.381Z,3.13
2019-03-09T08:31:06.727Z,2.63
2019-03-09T08:33:38.237Z,2.70
2019-03-09T08:36:10.454Z,2.50
2019-03-09T08:38:37.822Z,2.40
2019-03-09T08:41:05.314Z,2.50
2019-03-09T08:43:33.493Z,2.73
2019-03-09T08:46:00.989Z,2.80
2019-03-09T08:48:33.946Z,2.60
2019-03-09T08:51:01.297Z,2.97
2019-03-09T08:53:31.038Z,2.40
2019-03-09T08:55:57.968Z,2.90
2019-03-09T08:58:25.373Z,2.40
2019-03-09T09:00:52.814Z,3.00
2019-03-09T09:03:20.267Z,2.60
2019-03-09T09:05:47.611Z,2.33
2019-03-09T09:08:15.053Z,2.30
2019-03-09T09:10:42.476Z,2.40
2019-03-09T09:13:09.908Z,2.50
2019-03-09T09:15:37.389Z,2.30
2019-03-09T09:18:04.796Z,2.67
2019-03-09T09:20:32.236Z,2.50
2019-03-09T09:22:59.613Z,2.43
2019-03-09T09:25:26.968Z,2.00
2019-03-09T09:27:54.417Z,2.30
2019-03-09T09:30:23.727Z,2.20
2019-03-09T09:32:51.096Z,2.20
2019-03-09T09:35:18.824Z,2.03
2019-03-09T09:37:47.438Z,1.80
2019-03-09T09:40:17.336Z,2.10
2019-03-09T09:42:44.899Z,2.30
2019-03-09T09:45:12.948Z,2.33
2019-03-09T09:47:42.504Z,2.30
2019-03-09T09:50:10.112Z,2.00
2019-03-09T09:52:37.467Z,2.07
2019-03-09T09:55:07.051Z,1.90
2019-03-09T09:57:34.387Z,2.17
2019-03-09T10:00:01.840Z,2.10
2019-03-09T10:02:29.238Z,2.10
2019-03-09T10:04:56.590Z,1.90
2019-03-09T10:07:24.078Z,2.00
2019-03-09T10:09:51.498Z,2.30
2019-03-09T10:12:19.104Z,2.30
2019-03-09T10:14:46.454Z,3.27
2019-03-09T10:17:13.800Z,2.17
2019-03-09T10:19:41.158Z,2.03
2019-03-09T10:22:08.674Z,1.90
2019-03-09T10:24:36.185Z,2.10
2019-03-09T10:27:03.646Z,2.00
2019-03-09T10:29:31.106Z,2.47
2019-03-09T10:31:58.431Z,1.80
2019-03-09T10:34:25.948Z,1.80
2019-03-09T10:36:53.407Z,2.00
2019-03-09T10:39:20.876Z,2.10
2019-03-09T10:41:48.322Z,2.00
2019-03-09T10:44:15.892Z,2.10
2019-03-09T10:46:43.263Z,1.97
2019-03-09T10:49:10.713Z,2.00
2019-03-09T10:51:39.016Z,2.00
2019-03-09T10:54:06.606Z,2.70
2019-03-09T10:56:34.016Z,2.10
2019-03-09T10:59:01.483Z,4.13
2019-03-09T11:01:28.835Z,2.00
2019-03-09T11:03:56.171Z,2.00
2019-03-09T11:06:23.661Z,1.90
2019-03-09T11:08:51.237Z,2.57
2019-03-09T11:11:18.745Z,2.00
2019-03-09T11:13:51.871Z,3.33
2019-03-09T11:16:15.391Z,2.20
2019-03-09T11:18:44.813Z,3.40
2019-03-09T11:21:12.194Z,2.00
2019-03-09T11:23:39.715Z,1.90
2019-03-09T11:26:07.280Z,1.73
2019-03-09T11:28:34.679Z,1.90
2019-03-09T11:31:01.911Z,1.90
2019-03-09T11:33:29.376Z,2.33
2019-03-09T11:35:56.837Z,2.00
2019-03-09T11:38:24.283Z,1.90
2019-03-09T11:40:57.384Z,1.90
2019-03-09T11:43:20.872Z,1.83
2019-03-09T11:45:48.231Z,1.83
2019-03-09T11:48:15.689Z,2.00
2019-03-09T11:50:43.032Z,2.30
2019-03-09T11:53:10.547Z,2.20
2019-03-09T11:55:37.953Z,1.80
2019-03-09T11:58:05.410Z,1.70
2019-03-09T12:00:34.268Z,1.80
2019-03-09T12:03:01.583Z,1.90
2019-03-09T12:05:28.922Z,1.80
2019-03-09T12:07:58.135Z,1.70
2019-03-09T12:10:25.673Z,1.80
2019-03-09T12:12:53.899Z,1.80
2019-03-09T12:15:21.294Z,1.80
2019-03-09T12:17:50.822Z,1.97
2019-03-09T12:20:19.517Z,2.03
2019-03-09T12:23:19.518Z,2.00
2019-03-09T12:25:47.615Z,1.93
2019-03-09T12:28:15.003Z,1.90
2019-03-09T12:30:42.506Z,2.17
2019-03-09T12:33:10.296Z,2.17
2019-03-09T12:35:46.097Z,2.00
2019-03-09T12:38:13.574Z,2.37
2019-03-09T12:40:41.000Z,3.63
2019-03-09T12:43:08.498Z,2.93
2019-03-09T12:45:36.288Z,4.10
2019-03-09T12:48:03.697Z,2.60
2019-03-09T12:50:31.743Z,2.50
2019-03-09T12:52:59.782Z,2.83
2019-03-09T12:55:27.195Z,2.00
2019-03-09T12:57:58.818Z,2.00
2019-03-09T13:00:26.242Z,2.00
2019-03-09T13:02:53.765Z,2.87
2019-03-09T13:05:21.657Z,2.03
2019-03-09T13:07:49.013Z,2.10
2019-03-09T13:10:22.401Z,2.00
2019-03-09T13:12:49.965Z,1.77
2019-03-09T13:15:18.410Z,1.80
2019-03-09T13:17:51.851Z,2.10
2019-03-09T13:20:19.546Z,2.03
2019-03-09T13:22:47.338Z,2.00
2019-03-09T13:25:15.482Z,1.87
2019-03-09T13:27:42.852Z,2.13
2019-03-09T13:30:12.736Z,2.10
2019-03-09T13:32:40.957Z,2.20
2019-03-09T13:35:08.763Z,2.37
2019-03-09T13:37:36.218Z,2.23
2019-03-09T13:40:03.954Z,2.20
2019-03-09T13:42:31.556Z,2.23
2019-03-09T13:44:59.033Z,2.63
2019-03-09T13:47:26.608Z,2.20
2019-03-09T13:49:54.152Z,2.30
2019-03-09T13:52:21.643Z,2.40
2019-03-09T13:54:49.637Z,2.20
2019-03-09T13:57:17.173Z,2.17
2019-03-09T13:59:44.640Z,2.20
2019-03-09T14:02:12.332Z,2.60
2019-03-09T14:04:40.082Z,2.40
2019-03-09T14:07:07.963Z,2.90
2019-03-09T14:09:35.574Z,2.30
2019-03-09T14:12:03.550Z,2.50
2019-03-09T14:14:34.181Z,2.60
2019-03-09T14:17:01.986Z,2.70
2019-03-09T14:19:30.592Z,2.40
2019-03-09T14:21:58.328Z,2.50
2019-03-09T14:24:25.910Z,2.63
2019-03-09T14:26:53.568Z,2.30
2019-03-09T14:29:22.257Z,2.60
2019-03-09T14:31:50.420Z,2.50
2019-03-09T14:34:19.256Z,2.30
2019-03-09T14:36:46.802Z,2.40
2019-03-09T14:39:14.930Z,2.50
2019-03-09T14:41:42.570Z,2.30
2019-03-09T14:44:10.085Z,2.20
2019-03-09T14:46:37.666Z,2.40
2019-03-09T14:49:05.228Z,2.80
2019-03-09T14:51:34.026Z,2.80
2019-03-09T14:54:01.487Z,2.40
2019-03-09T14:56:28.872Z,2.50
2019-03-09T14:58:57.501Z,2.83
2019-03-09T15:01:25.132Z,2.60
2019-03-09T15:03:53.722Z,2.40
2019-03-09T15:06:22.181Z,2.70
2019-03-09T15:08:52.127Z,2.57
2019-03-09T15:14:06.803Z,2.40
2019-03-09T15:16:34.399Z,2.60
2019-03-09T15:19:01.929Z,2.17
2019-03-09T15:21:29.468Z,2.47
2019-03-09T15:23:57.026Z,2.50
2019-03-09T15:26:24.519Z,2.33
2019-03-09T15:28:51.878Z,2.20
2019-03-09T15:31:19.262Z,2.20
2019-03-09T15:33:46.876Z,2.27
2019-03-09T15:36:14.354Z,2.30
2019-03-09T15:38:41.818Z,2.50
2019-03-09T15:41:09.273Z,2.50
2019-03-09T15:43:36.864Z,2.40
2019-03-09T15:46:04.299Z,2.30
2019-03-09T15:48:32.042Z,2.50
2019-03-09T15:50:59.713Z,2.40
2019-03-09T15:53:27.147Z,2.50
2019-03-09T15:55:54.894Z,2.30
2019-03-09T15:58:22.697Z,2.40
2019-03-09T16:00:50.287Z,2.30
2019-03-09T16:03:18.486Z,2.43
2019-03-09T16:05:46.624Z,2.60
2019-03-09T16:08:14.117Z,2.30
2019-03-09T16:10:41.596Z,2.50
2019-03-09T16:13:09.014Z,2.50
2019-03-09T16:15:36.434Z,2.63
2019-03-09T16:18:04.066Z,3.00
2019-03-09T16:20:32.276Z,2.70
2019-03-09T16:22:59.816Z,2.63
2019-03-09T16:25:28.998Z,2.80
2019-03-09T16:27:56.787Z,2.63
2019-03-09T16:30:24.320Z,2.30
2019-03-09T16:32:51.944Z,2.40
2019-03-09T16:35:19.648Z,2.50
2019-03-09T16:37:47.555Z,2.73
2019-03-09T16:40:15.647Z,2.60
2019-03-09T16:42:43.422Z,2.50
2019-03-09T16:45:11.568Z,2.30
2019-03-09T16:47:39.667Z,2.47
2019-03-09T16:50:08.727Z,2.40
2019-03-09T16:52:36.858Z,2.40
2019-03-09T16:55:05.604Z,2.70
2019-03-09T16:57:32.922Z,2.80
2019-03-09T17:00:00.853Z,2.53
2019-03-09T17:02:28.911Z,2.40
2019-03-09T17:04:56.623Z,2.47
2019-03-09T17:07:24.623Z,2.30
2019-03-09T17:09:52.422Z,2.20
2019-03-09T17:12:20.365Z,2.67
2019-03-09T17:14:48.124Z,2.60
2019-03-09T17:17:15.716Z,2.50
2019-03-09T17:19:43.194Z,2.20
2019-03-09T17:22:11.107Z,2.50
2019-03-09T17:24:38.814Z,2.53
2019-03-09T17:27:06.266Z,2.20
2019-03-09T17:29:34.095Z,2.20
2019-03-09T17:32:02.053Z,2.27
2019-03-09T17:34:30.160Z,2.10
2019-03-09T17:36:57.772Z,2.27
2019-03-09T17:39:27.500Z,2.10
2019-03-09T17:41:56.449Z,2.20
2019-03-09T17:44:26.652Z,2.20
2019-03-09T17:46:56.558Z,2.10
2019-03-09T17:49:26.470Z,2.20
2019-03-09T17:51:54.594Z,2.20
2019-03-09T17:54:22.626Z,2.20
2019-03-09T17:56:50.364Z,2.30
2019-03-09T17:59:18.089Z,2.30
2019-03-09T18:01:47.946Z,2.30
2019-03-09T18:04:15.933Z,2.30
2019-03-09T18:06:43.511Z,2.40
2019-03-09T18:09:12.369Z,5.43
2019-03-09T18:11:42.371Z,3.90
2019-03-09T18:14:09.911Z,2.40
2019-03-09T18:16:37.828Z,2.10
2019-03-09T18:19:25.228Z,2.20
2019-03-09T18:21:55.979Z,2.10
2019-03-09T18:24:23.670Z,2.00
2019-03-09T18:26:51.388Z,2.27
2019-03-09T18:29:21.473Z,2.20
2019-03-09T18:38:33.890Z,2.40
2019-03-09T18:41:36.837Z,2.20
2019-03-09T18:44:47.717Z,2.10
2019-03-09T18:47:58.579Z,2.20
2019-03-09T18:50:44.638Z,2.13
2019-03-09T19:00:14.354Z,2.10
2019-03-09T19:02:47.875Z,2.20
2019-03-09T19:05:15.310Z,1.90
2019-03-09T19:07:42.942Z,2.00
2019-03-09T19:10:11.380Z,2.30
2019-03-09T19:12:38.865Z,2.20
2019-03-09T19:15:09.106Z,2.27
2019-03-09T19:17:36.619Z,2.13
2019-03-09T19:20:04.790Z,2.50
2019-03-09T19:22:33.045Z,2.50
2019-03-09T19:25:00.554Z,2.40
2019-03-09T19:27:28.112Z,2.40
2019-03-09T19:29:55.676Z,2.50
2019-03-09T19:32:23.104Z,2.70
2019-03-09T19:34:50.720Z,2.57
2019-03-09T19:37:21.219Z,2.70
2019-03-09T19:39:48.806Z,2.57
2019-03-09T19:42:16.432Z,2.80
2019-03-09T19:44:44.131Z,2.80
2019-03-09T19:47:11.635Z,2.43
2019-03-09T19:49:39.134Z,2.60
2019-03-09T19:52:06.823Z,2.40
2019-03-09T19:54:34.425Z,2.80
2019-03-09T19:57:01.986Z,2.90
2019-03-09T19:59:29.734Z,3.00
2019-03-09T20:01:58.597Z,2.87
2019-03-09T20:04:27.182Z,3.57
2019-03-09T20:06:55.003Z,3.30
2019-03-09T20:09:22.793Z,3.10
2019-03-09T20:11:50.434Z,3.20
2019-03-09T20:14:37.559Z,3.43
2019-03-09T20:17:06.236Z,3.30
2019-03-09T20:19:33.783Z,4.23
2019-03-09T20:22:01.370Z,3.63
2019-03-09T20:24:28.924Z,3.50
2019-03-09T20:26:56.428Z,3.60
2019-03-09T20:29:24.118Z,3.30
2019-03-09T20:31:59.019Z,3.20
2019-03-09T20:34:26.614Z,3.00
2019-03-09T20:36:54.316Z,3.27
2019-03-09T20:39:22.073Z,15.03
2019-03-09T20:41:49.606Z,10.73
2019-03-09T20:44:17.147Z,5.43
2019-03-09T20:46:44.742Z,7.73
2019-03-09T20:49:12.277Z,4.97
2019-03-09T20:51:39.777Z,4.10
2019-03-09T20:54:07.272Z,3.20
2019-03-09T20:56:34.791Z,2.90
2019-03-09T20:59:02.375Z,2.97
2019-03-09T21:01:29.936Z,3.20
2019-03-09T21:03:57.423Z,3.20
2019-03-09T21:06:25.009Z,2.83
2019-03-09T21:08:52.573Z,2.87
2019-03-09T21:11:20.265Z,2.97
2019-03-09T21:13:47.766Z,6.13
2019-03-09T21:16:15.495Z,4.43
2019-03-09T21:18:43.205Z,2.70
2019-03-09T21:21:10.730Z,2.70
2019-03-09T21:23:38.211Z,2.70
2019-03-09T21:26:05.840Z,2.70
2019-03-09T21:29:01.808Z,2.57
2019-03-09T21:31:29.602Z,2.60
2019-03-09T21:33:57.213Z,2.90
2019-03-09T21:36:25.902Z,3.00
2019-03-09T21:38:59.794Z,2.20
2019-03-09T21:41:31.503Z,2.60
2019-03-09T21:43:59.052Z,2.40
2019-03-09T21:46:26.700Z,2.40
2019-03-09T21:48:54.427Z,2.30
2019-03-09T21:51:22.124Z,2.40
2019-03-09T21:53:49.790Z,2.60
2019-03-09T21:56:17.298Z,2.30
2019-03-09T21:58:44.917Z,2.00
2019-03-09T22:01:12.654Z,2.17
2019-03-09T22:03:40.381Z,2.10
2019-03-09T22:06:09.013Z,2.50
2019-03-09T22:08:36.586Z,2.60
2019-03-09T22:11:04.354Z,2.20
2019-03-09T22:13:31.913Z,2.40
2019-03-09T22:15:59.979Z,2.10
2019-03-09T22:18:27.832Z,1.87
2019-03-09T22:20:55.387Z,2.10
2019-03-09T22:23:23.668Z,2.30
2019-03-09T22:25:51.241Z,2.10
2019-03-09T22:28:19.347Z,2.00
2019-03-09T22:30:47.843Z,2.17
2019-03-09T22:33:15.552Z,2.00
2019-03-09T22:35:43.102Z,2.10
2019-03-09T22:38:10.903Z,2.00
2019-03-09T22:40:38.364Z,2.00
2019-03-09T22:43:06.279Z,1.97
2019-03-09T22:45:33.941Z,2.13
2019-03-09T22:48:01.914Z,2.03
2019-03-09T22:50:29.414Z,1.93
2019-03-09T22:52:56.871Z,1.83
2019-03-09T22:55:25.457Z,1.90
2019-03-09T22:57:52.803Z,1.70
2019-03-09T23:00:21.869Z,2.03
2019-03-09T23:02:49.360Z,1.87
2019-03-09T23:05:16.819Z,2.03
2019-03-09T23:07:44.405Z,1.83
2019-03-09T23:10:13.471Z,2.00
2019-03-09T23:12:40.698Z,2.00
2019-03-09T23:15:10.304Z,2.20
2019-03-09T23:17:37.718Z,1.93
2019-03-09T23:20:05.957Z,2.10
2019-03-09T23:22:33.396Z,2.00
2019-03-09T23:25:00.812Z,1.90
2019-03-09T23:27:28.291Z,2.10
2019-03-09T23:29:55.780Z,1.97
2019-03-09T23:32:23.239Z,2.00
2019-03-09T23:34:52.129Z,2.27
2019-03-09T23:37:19.558Z,2.00
2019-03-09T23:39:46.999Z,2.07
2019-03-09T23:42:14.468Z,2.10
2019-03-09T23:44:41.789Z,2.20
2019-03-09T23:47:09.267Z,2.00
2019-03-09T23:49:36.638Z,1.73
2019-03-09T23:52:03.952Z,2.07
2019-03-09T23:54:31.469Z,2.00
2019-03-09T23:56:58.899Z,2.00
2019-03-09T23:59:26.427Z,1.93
